createdAt,value
2023-05-19T00:01:19.331Z,89.09
2023-05-19T00:03:46.837Z,89.10
2023-05-19T00:06:14.546Z,89.10
2023-05-19T00:08:42.318Z,89.05
2023-05-19T00:11:09.925Z,89.02
2023-05-19T00:13:37.433Z,89.01
2023-05-19T00:16:06.185Z,89.15
2023-05-19T00:18:34.676Z,89.19
2023-05-19T00:21:02.283Z,89.08
2023-05-19T00:23:29.832Z,89.08
2023-05-19T00:25:57.418Z,89.19
2023-05-19T00:28:24.944Z,89.20
2023-05-19T00:30:52.535Z,89.23
2023-05-19T00:33:20.080Z,89.28
2023-05-19T00:35:47.589Z,89.35
2023-05-19T00:38:15.137Z,89.37
2023-05-19T00:40:43.008Z,89.30
2023-05-19T00:43:10.659Z,89.25
2023-05-19T00:45:38.198Z,89.30
2023-05-19T00:48:05.712Z,89.34
2023-05-19T00:50:33.556Z,89.38
2023-05-19T00:53:01.589Z,89.47
2023-05-19T00:55:29.178Z,89.59
2023-05-19T00:57:56.776Z,89.62
2023-05-19T01:00:24.312Z,89.56
2023-05-19T01:02:51.931Z,89.50
2023-05-19T01:05:19.494Z,89.43
2023-05-19T01:07:47.321Z,89.43
2023-05-19T01:10:14.826Z,89.37
2023-05-19T01:12:42.366Z,89.30
2023-05-19T01:15:10.111Z,89.29
2023-05-19T01:17:37.675Z,89.37
2023-05-19T01:20:05.281Z,89.40
2023-05-19T01:22:32.865Z,89.47
2023-05-19T01:25:00.373Z,89.58
2023-05-19T01:27:27.906Z,89.69
2023-05-19T01:29:55.508Z,89.74
2023-05-19T01:32:23.111Z,89.70
2023-05-19T01:34:50.719Z,89.74
2023-05-19T01:37:18.262Z,89.79
2023-05-19T01:39:45.913Z,89.80
2023-05-19T01:42:13.427Z,89.80
2023-05-19T01:44:40.948Z,89.68
2023-05-19T01:47:08.500Z,89.69
2023-05-19T01:49:36.082Z,89.68
2023-05-19T01:52:03.731Z,89.66
2023-05-19T01:54:31.329Z,89.64
2023-05-19T01:56:59.209Z,89.69
2023-05-19T01:59:26.781Z,89.67
2023-05-19T02:01:54.393Z,89.67
2023-05-19T02:04:22.137Z,89.76
2023-05-19T02:06:49.779Z,89.86
2023-05-19T02:09:17.338Z,89.90
2023-05-19T02:11:44.833Z,89.99
2023-05-19T02:14:12.422Z,89.99
2023-05-19T02:16:39.999Z,90.02
2023-05-19T02:19:07.561Z,89.91
2023-05-19T02:21:35.171Z,89.96
2023-05-19T02:24:02.739Z,90.10
2023-05-19T02:26:30.998Z,90.03
2023-05-19T02:28:58.523Z,90.02
2023-05-19T02:31:26.203Z,90.02
2023-05-19T02:33:53.725Z,90.00
2023-05-19T02:36:21.258Z,90.01
2023-05-19T02:38:51.346Z,89.94
2023-05-19T02:41:18.832Z,89.90
2023-05-19T02:43:46.411Z,89.77
2023-05-19T02:46:14.038Z,89.75
2023-05-19T02:48:41.622Z,89.79
2023-05-19T02:51:09.194Z,89.82
2023-05-19T02:53:36.690Z,89.89
2023-05-19T02:56:04.552Z,89.90
2023-05-19T02:58:32.200Z,89.96
2023-05-19T03:01:01.620Z,89.92
2023-05-19T03:03:29.305Z,89.89
2023-05-19T03:05:56.954Z,90.00
2023-05-19T03:08:24.515Z,89.90
2023-05-19T03:10:52.037Z,89.87
2023-05-19T03:13:19.636Z,89.76
2023-05-19T03:15:47.534Z,89.75
2023-05-19T03:18:15.406Z,89.82
2023-05-19T03:20:44.728Z,89.85
2023-05-19T03:23:12.639Z,89.85
2023-05-19T03:25:40.188Z,89.80
2023-05-19T03:28:07.737Z,89.80
2023-05-19T03:30:35.474Z,89.80
2023-05-19T03:33:03.130Z,89.79
2023-05-19T03:35:30.899Z,89.72
2023-05-19T03:37:58.449Z,89.77
2023-05-19T03:40:25.987Z,89.87
2023-05-19T03:42:54.543Z,89.79
2023-05-19T03:45:22.089Z,89.88
2023-05-19T03:47:49.637Z,89.92
2023-05-19T03:50:17.198Z,89.93
2023-05-19T03:52:46.543Z,89.95
2023-05-19T03:55:20.211Z,89.98
2023-05-19T03:57:48.783Z,90.02
2023-05-19T04:00:16.777Z,90.12
2023-05-19T04:02:44.590Z,90.19
2023-05-19T04:05:12.271Z,90.14
2023-05-19T04:07:39.766Z,90.21
2023-05-19T04:10:07.290Z,90.35
2023-05-19T04:12:34.806Z,90.51
2023-05-19T04:15:02.351Z,90.58
2023-05-19T04:17:29.950Z,90.60
2023-05-19T04:19:57.540Z,90.54
2023-05-19T04:22:24.999Z,90.57
2023-05-19T04:24:53.126Z,90.51
2023-05-19T04:27:22.225Z,90.51
2023-05-19T04:29:50.050Z,90.51
2023-05-19T04:32:18.017Z,90.57
2023-05-19T04:34:46.070Z,90.44
2023-05-19T04:37:16.620Z,90.28
2023-05-19T04:39:45.512Z,90.30
2023-05-19T04:42:19.337Z,90.27
2023-05-19T04:44:51.806Z,90.39
2023-05-19T04:47:21.560Z,90.40
2023-05-19T04:49:49.234Z,90.41
2023-05-19T04:52:22.952Z,90.42
2023-05-19T04:54:50.722Z,90.40
2023-05-19T04:57:18.811Z,90.35
2023-05-19T04:59:46.614Z,90.40
2023-05-19T05:02:14.181Z,90.51
2023-05-19T05:04:44.174Z,90.50
2023-05-19T05:07:11.767Z,90.43
2023-05-19T05:09:39.338Z,90.41
2023-05-19T05:12:08.041Z,90.43
2023-05-19T05:14:35.756Z,90.48
2023-05-19T05:17:03.364Z,90.68
2023-05-19T05:19:31.007Z,90.66
2023-05-19T05:21:58.792Z,90.50
2023-05-19T05:24:26.366Z,90.38
2023-05-19T05:26:53.894Z,90.48
2023-05-19T05:29:21.663Z,90.34
2023-05-19T05:31:49.174Z,90.13
2023-05-19T05:34:16.734Z,90.22
2023-05-19T05:36:44.468Z,90.25
2023-05-19T05:39:12.135Z,90.31
2023-05-19T05:41:39.732Z,90.27
2023-05-19T05:44:07.298Z,90.16
2023-05-19T05:46:34.985Z,90.17
2023-05-19T05:49:02.713Z,90.13
2023-05-19T05:51:32.937Z,90.21
2023-05-19T05:54:00.641Z,90.18
2023-05-19T05:56:28.659Z,90.09
2023-05-19T05:58:56.869Z,89.92
2023-05-19T06:01:24.515Z,89.84
2023-05-19T06:03:52.087Z,90.08
2023-05-19T06:06:19.664Z,89.96
2023-05-19T06:08:47.145Z,89.94
2023-05-19T06:11:14.656Z,89.90
2023-05-19T06:13:42.294Z,89.75
2023-05-19T06:16:09.988Z,89.90
2023-05-19T06:18:37.729Z,90.03
2023-05-19T06:21:05.308Z,89.71
2023-05-19T06:23:32.904Z,89.86
2023-05-19T06:26:00.415Z,90.04
2023-05-19T06:28:27.933Z,90.01
2023-05-19T06:30:55.521Z,89.88
2023-05-19T06:33:23.086Z,89.94
2023-05-19T06:35:51.102Z,89.94
2023-05-19T06:38:18.619Z,89.85
2023-05-19T06:40:46.147Z,89.52
2023-05-19T06:43:13.691Z,89.34
2023-05-19T06:45:41.263Z,89.49
2023-05-19T06:48:08.869Z,89.38
2023-05-19T06:50:36.572Z,89.10
2023-05-19T06:53:04.206Z,89.28
2023-05-19T06:55:32.379Z,89.33
2023-05-19T06:57:59.957Z,89.06
2023-05-19T07:00:27.528Z,89.17
2023-05-19T07:02:55.382Z,89.40
2023-05-19T07:05:23.078Z,89.32
2023-05-19T07:07:50.650Z,89.44
2023-05-19T07:10:18.180Z,89.31
2023-05-19T07:12:45.791Z,89.18
2023-05-19T07:15:13.298Z,88.86
2023-05-19T07:17:40.877Z,88.88
2023-05-19T07:20:10.154Z,89.35
2023-05-19T07:22:39.819Z,89.21
2023-05-19T07:25:07.554Z,89.18
2023-05-19T07:27:35.165Z,88.93
2023-05-19T07:30:04.012Z,88.56
2023-05-19T07:32:31.607Z,88.68
2023-05-19T07:34:59.155Z,88.78
2023-05-19T07:37:26.781Z,88.79
2023-05-19T07:39:54.370Z,88.66
2023-05-19T07:42:22.117Z,88.64
2023-05-19T07:44:49.646Z,88.24
2023-05-19T07:47:17.132Z,88.10
2023-05-19T07:49:44.716Z,87.94
2023-05-19T07:52:12.197Z,88.25
2023-05-19T07:54:39.750Z,88.28
2023-05-19T07:57:07.363Z,88.01
2023-05-19T07:59:34.883Z,87.90
2023-05-19T08:02:02.490Z,87.89
2023-05-19T08:04:30.268Z,87.77
2023-05-19T08:06:57.863Z,87.82
2023-05-19T08:09:25.371Z,87.64
2023-05-19T08:11:53.116Z,87.64
2023-05-19T08:14:22.804Z,87.42
2023-05-19T08:16:50.439Z,87.73
2023-05-19T08:19:18.017Z,87.64
2023-05-19T08:21:45.645Z,87.46
2023-05-19T08:24:13.554Z,87.48
2023-05-19T08:26:41.150Z,87.13
2023-05-19T08:29:08.709Z,87.20
2023-05-19T08:31:36.467Z,87.02
2023-05-19T08:34:04.095Z,86.69
2023-05-19T08:36:31.630Z,86.78
2023-05-19T08:38:59.137Z,86.90
2023-05-19T08:41:26.696Z,86.64
2023-05-19T08:43:54.168Z,86.69
2023-05-19T08:46:21.728Z,86.48
2023-05-19T08:48:49.396Z,85.90
2023-05-19T08:51:16.894Z,86.04
2023-05-19T08:53:45.277Z,85.96
2023-05-19T08:56:13.062Z,86.19
2023-05-19T08:58:41.482Z,85.65
2023-05-19T09:01:09.262Z,85.65
2023-05-19T09:03:39.844Z,85.77
2023-05-19T09:06:08.777Z,85.32
2023-05-19T09:08:37.279Z,85.51
2023-05-19T09:11:04.878Z,85.52
2023-05-19T09:13:32.487Z,85.25
2023-05-19T09:16:00.020Z,85.09
2023-05-19T09:18:27.711Z,85.04
2023-05-19T09:20:55.206Z,85.23
2023-05-19T09:23:24.928Z,85.02
2023-05-19T09:25:52.491Z,84.51
2023-05-19T09:28:20.039Z,84.85
2023-05-19T09:30:47.589Z,84.68
2023-05-19T09:33:16.537Z,84.80
2023-05-19T09:35:44.086Z,84.28
2023-05-19T09:38:12.184Z,84.12
2023-05-19T09:40:39.698Z,83.98
2023-05-19T09:43:07.267Z,84.02
2023-05-19T09:45:35.042Z,84.09
2023-05-19T09:48:03.144Z,83.67
2023-05-19T09:50:30.944Z,84.30
2023-05-19T09:52:58.634Z,84.41
2023-05-19T09:55:26.354Z,85.08
2023-05-19T09:57:54.024Z,84.08
2023-05-19T10:00:21.574Z,83.94
2023-05-19T10:02:50.537Z,83.97
2023-05-19T10:05:20.216Z,84.10
2023-05-19T10:07:48.509Z,83.44
2023-05-19T10:10:16.273Z,83.29
2023-05-19T10:12:43.857Z,83.90
2023-05-19T10:15:11.797Z,83.66
2023-05-19T10:17:40.012Z,83.84
2023-05-19T10:20:08.904Z,83.82
2023-05-19T10:22:36.401Z,83.83
2023-05-19T10:25:04.111Z,83.76
2023-05-19T10:27:31.614Z,83.85
2023-05-19T10:29:59.131Z,83.14
2023-05-19T10:32:26.715Z,82.89
2023-05-19T10:34:54.407Z,82.67
2023-05-19T10:37:22.110Z,82.85
2023-05-19T10:39:49.724Z,82.78
2023-05-19T10:42:17.439Z,83.13
2023-05-19T10:44:44.971Z,83.14
2023-05-19T10:47:12.836Z,82.84
2023-05-19T10:49:40.561Z,82.18
2023-05-19T10:52:08.098Z,82.13
2023-05-19T10:54:39.222Z,82.13
2023-05-19T10:57:08.079Z,81.96
2023-05-19T10:59:37.207Z,81.71
2023-05-19T11:02:05.096Z,81.91
2023-05-19T11:04:32.884Z,81.01
2023-05-19T11:07:00.414Z,81.43
2023-05-19T11:09:39.713Z,81.37
2023-05-19T11:12:08.051Z,81.97
2023-05-19T11:14:36.244Z,81.86
2023-05-19T11:17:05.660Z,81.46
2023-05-19T11:19:33.428Z,81.27
2023-05-19T11:22:01.422Z,81.10
2023-05-19T11:24:28.935Z,81.44
2023-05-19T11:26:56.698Z,81.22
2023-05-19T11:29:24.303Z,81.01
2023-05-19T11:31:51.958Z,81.31
2023-05-19T11:34:19.677Z,80.87
2023-05-19T11:36:48.298Z,80.60
2023-05-19T11:39:15.868Z,80.99
2023-05-19T11:41:43.388Z,81.14
2023-05-19T11:44:11.858Z,81.70
2023-05-19T11:46:39.564Z,80.97
2023-05-19T11:49:07.154Z,80.83
2023-05-19T11:51:34.761Z,81.23
2023-05-19T11:54:03.192Z,81.29
2023-05-19T11:56:30.914Z,81.88
2023-05-19T11:58:58.465Z,80.75
2023-05-19T12:01:27.113Z,80.37
2023-05-19T12:03:54.793Z,80.83
2023-05-19T12:06:22.587Z,81.19
2023-05-19T12:08:50.173Z,81.21
2023-05-19T12:11:18.155Z,80.76
2023-05-19T12:13:46.517Z,80.55
2023-05-19T12:16:14.251Z,80.95
2023-05-19T12:18:42.058Z,80.23
2023-05-19T12:21:09.926Z,79.92
2023-05-19T12:23:37.436Z,79.65
2023-05-19T12:26:04.965Z,80.21
2023-05-19T12:28:32.701Z,80.05
2023-05-19T12:31:00.922Z,79.76
2023-05-19T12:33:28.443Z,79.62
2023-05-19T12:35:56.374Z,80.16
2023-05-19T12:38:23.900Z,79.96
2023-05-19T12:40:51.542Z,79.39
2023-05-19T12:43:19.051Z,79.30
2023-05-19T12:45:46.681Z,78.67
2023-05-19T12:48:16.102Z,78.12
2023-05-19T12:50:45.004Z,78.47
2023-05-19T12:53:13.170Z,78.35
2023-05-19T12:55:42.172Z,78.17
2023-05-19T12:58:09.796Z,78.27
2023-05-19T13:00:37.444Z,78.57
2023-05-19T13:03:05.666Z,78.41
2023-05-19T13:05:37.067Z,78.47
2023-05-19T13:08:04.680Z,78.19
2023-05-19T13:10:33.113Z,77.59
2023-05-19T13:13:01.173Z,77.73
2023-05-19T13:15:31.645Z,77.65
2023-05-19T13:17:59.270Z,77.18
2023-05-19T13:20:28.496Z,77.34
2023-05-19T13:22:57.095Z,77.23
2023-05-19T13:25:24.712Z,76.90
2023-05-19T13:27:52.280Z,76.68
2023-05-19T13:30:20.954Z,77.00
2023-05-19T13:32:48.546Z,76.78
2023-05-19T13:35:16.188Z,77.31
2023-05-19T13:37:43.880Z,76.53
2023-05-19T13:40:11.642Z,76.08
2023-05-19T13:42:39.233Z,76.14
2023-05-19T13:45:06.780Z,76.56
2023-05-19T13:47:34.392Z,76.78
2023-05-19T13:50:02.364Z,76.55
2023-05-19T13:52:30.576Z,76.29
2023-05-19T13:54:58.267Z,76.69
2023-05-19T13:57:26.482Z,76.50
2023-05-19T14:00:01.648Z,75.81
2023-05-19T14:02:30.895Z,75.81
2023-05-19T14:04:58.825Z,76.03
2023-05-19T14:07:28.599Z,76.26
2023-05-19T14:09:56.393Z,76.17
2023-05-19T14:12:30.945Z,75.67
2023-05-19T14:15:04.349Z,75.05
2023-05-19T14:17:32.645Z,75.28
2023-05-19T14:20:00.289Z,75.70
2023-05-19T14:22:27.893Z,75.52
2023-05-19T14:24:55.405Z,76.11
2023-05-19T14:27:22.967Z,76.21
2023-05-19T14:29:50.662Z,76.05
2023-05-19T14:32:18.581Z,75.99
2023-05-19T14:34:46.203Z,76.28
2023-05-19T14:37:13.759Z,76.31
2023-05-19T14:39:41.301Z,75.85
2023-05-19T14:42:08.810Z,76.31
2023-05-19T14:44:37.651Z,75.79
2023-05-19T14:47:07.383Z,75.72
2023-05-19T14:49:35.077Z,75.37
2023-05-19T14:52:03.163Z,75.19
2023-05-19T14:54:30.712Z,75.93
2023-05-19T14:56:58.283Z,75.46
2023-05-19T14:59:26.010Z,76.09
2023-05-19T15:01:53.506Z,75.66
2023-05-19T15:04:21.450Z,75.48
2023-05-19T15:06:58.130Z,75.96
2023-05-19T15:09:36.665Z,75.59
2023-05-19T15:12:04.316Z,75.18
2023-05-19T15:14:31.897Z,74.72
2023-05-19T15:16:59.498Z,75.43
2023-05-19T15:19:27.364Z,75.54
2023-05-19T15:21:55.240Z,75.52
2023-05-19T15:24:22.781Z,75.81
2023-05-19T15:26:50.444Z,76.37
2023-05-19T15:29:36.847Z,76.28
2023-05-19T15:32:04.916Z,76.09
2023-05-19T15:34:32.468Z,75.58
2023-05-19T15:37:07.023Z,75.01
2023-05-19T15:39:35.078Z,75.42
2023-05-19T15:42:02.604Z,75.64
2023-05-19T15:44:30.189Z,75.43
2023-05-19T15:46:57.904Z,74.98
2023-05-19T15:49:25.482Z,75.17
2023-05-19T15:51:53.077Z,75.67
2023-05-19T15:54:20.675Z,75.79
2023-05-19T15:56:48.310Z,75.89
2023-05-19T15:59:15.889Z,75.69
2023-05-19T16:01:43.527Z,75.61
2023-05-19T16:04:11.219Z,75.07
2023-05-19T16:06:38.877Z,75.16
2023-05-19T16:09:06.783Z,75.27
2023-05-19T16:11:34.359Z,75.18
2023-05-19T16:14:01.935Z,75.38
2023-05-19T16:16:29.716Z,74.70
2023-05-19T16:18:57.341Z,74.93
2023-05-19T16:21:24.857Z,74.78
2023-05-19T16:23:52.412Z,74.92
2023-05-19T16:26:20.162Z,75.32
2023-05-19T16:28:47.723Z,74.81
2023-05-19T16:31:15.361Z,75.21
2023-05-19T16:33:42.995Z,75.68
2023-05-19T16:36:10.772Z,76.01
2023-05-19T16:38:38.317Z,75.70
2023-05-19T16:41:05.995Z,76.03
2023-05-19T16:43:33.976Z,76.00
2023-05-19T16:46:04.206Z,76.39
2023-05-19T16:48:31.811Z,76.17
2023-05-19T16:50:59.832Z,75.96
2023-05-19T16:53:27.587Z,76.08
2023-05-19T16:55:55.164Z,76.41
2023-05-19T16:58:22.770Z,76.86
2023-05-19T17:00:50.406Z,76.68
2023-05-19T17:03:18.358Z,75.75
2023-05-19T17:05:46.226Z,75.68
2023-05-19T17:08:13.878Z,76.16
2023-05-19T17:10:41.591Z,76.24
2023-05-19T17:13:09.208Z,76.96
2023-05-19T17:15:37.489Z,77.35
2023-05-19T17:18:05.780Z,77.23
2023-05-19T17:20:33.576Z,77.30
2023-05-19T17:23:01.318Z,77.57
2023-05-19T17:25:28.818Z,77.63
2023-05-19T17:27:56.436Z,77.82
2023-05-19T17:30:24.198Z,78.07
2023-05-19T17:32:52.264Z,78.03
2023-05-19T17:35:19.937Z,78.12
2023-05-19T17:37:47.597Z,78.16
2023-05-19T17:40:15.113Z,78.36
2023-05-19T17:42:42.624Z,78.40
2023-05-19T17:45:12.408Z,78.36
2023-05-19T17:47:40.034Z,78.33
2023-05-19T17:50:07.673Z,78.60
2023-05-19T17:52:35.215Z,78.97
2023-05-19T17:55:02.914Z,78.81
2023-05-19T17:57:31.074Z,78.98
2023-05-19T17:59:58.646Z,79.40
2023-05-19T18:02:26.475Z,79.85
2023-05-19T18:04:54.467Z,79.88
2023-05-19T18:07:22.199Z,79.90
2023-05-19T18:09:51.106Z,80.28
2023-05-19T18:12:18.864Z,80.65
2023-05-19T18:14:46.445Z,80.74
2023-05-19T18:17:13.931Z,80.86
2023-05-19T18:19:41.474Z,80.97
2023-05-19T18:22:13.069Z,81.06
2023-05-19T18:24:40.713Z,81.30
2023-05-19T18:27:08.226Z,81.36
2023-05-19T18:29:35.860Z,81.42
2023-05-19T18:32:03.491Z,81.44
2023-05-19T18:34:31.186Z,81.71
2023-05-19T18:36:58.823Z,81.84
2023-05-19T18:39:28.566Z,81.89
2023-05-19T18:41:56.875Z,82.12
2023-05-19T18:44:24.454Z,82.42
2023-05-19T18:46:52.049Z,82.58
2023-05-19T18:49:20.023Z,82.79
2023-05-19T18:51:48.562Z,83.19
2023-05-19T18:54:16.178Z,83.20
2023-05-19T18:56:43.743Z,83.17
2023-05-19T18:59:11.552Z,83.40
2023-05-19T19:01:39.190Z,83.64
2023-05-19T19:04:07.146Z,83.60
2023-05-19T19:06:34.793Z,83.66
2023-05-19T19:09:02.395Z,83.63
2023-05-19T19:11:30.213Z,83.64
2023-05-19T19:13:57.977Z,83.76
2023-05-19T19:16:25.473Z,83.97
2023-05-19T19:18:53.438Z,84.13
2023-05-19T19:21:24.070Z,84.28
2023-05-19T19:23:51.656Z,84.40
2023-05-19T19:26:19.182Z,84.41
2023-05-19T19:28:47.222Z,84.41
2023-05-19T19:31:14.848Z,84.54
2023-05-19T19:33:43.509Z,85.03
2023-05-19T19:36:11.413Z,84.60
2023-05-19T19:38:38.906Z,84.72
2023-05-19T19:41:06.478Z,84.82
2023-05-19T19:43:34.057Z,85.08
2023-05-19T19:46:01.725Z,85.06
2023-05-19T19:48:29.355Z,85.21
2023-05-19T19:50:56.973Z,85.25
2023-05-19T19:53:24.889Z,85.25
2023-05-19T19:55:53.332Z,85.29
2023-05-19T19:58:21.152Z,85.38
2023-05-19T20:00:48.844Z,85.43
2023-05-19T20:03:16.421Z,85.45
2023-05-19T20:05:44.851Z,85.65
2023-05-19T20:08:13.489Z,85.85
2023-05-19T20:10:41.619Z,85.89
2023-05-19T20:13:09.536Z,85.96
2023-05-19T20:15:37.509Z,86.13
2023-05-19T20:18:05.098Z,86.02
2023-05-19T20:20:33.048Z,86.03
2023-05-19T20:23:00.947Z,86.18
2023-05-19T20:25:28.647Z,86.19
2023-05-19T20:27:56.266Z,86.10
2023-05-19T20:30:24.112Z,86.12
2023-05-19T20:32:51.634Z,86.26
2023-05-19T20:35:19.186Z,86.27
2023-05-19T20:37:48.004Z,86.25
2023-05-19T20:40:15.640Z,86.28
2023-05-19T20:42:43.208Z,86.38
2023-05-19T20:45:10.721Z,86.50
2023-05-19T20:47:38.331Z,86.72
2023-05-19T20:50:06.154Z,86.99
2023-05-19T20:52:33.687Z,87.16
2023-05-19T20:55:01.278Z,87.24
2023-05-19T20:57:29.055Z,87.26
2023-05-19T20:59:56.630Z,87.20
2023-05-19T21:02:24.181Z,87.25
2023-05-19T21:04:51.763Z,87.45
2023-05-19T21:07:19.569Z,87.53
2023-05-19T21:09:50.237Z,87.60
2023-05-19T21:12:18.492Z,87.77
2023-05-19T21:14:47.493Z,87.86
2023-05-19T21:17:15.268Z,87.86
2023-05-19T21:19:42.787Z,87.91
2023-05-19T21:22:10.291Z,88.06
2023-05-19T21:24:37.848Z,88.15
2023-05-19T21:27:05.433Z,88.21
2023-05-19T21:29:32.930Z,88.22
2023-05-19T21:32:01.163Z,88.32
2023-05-19T21:34:28.699Z,88.61
2023-05-19T21:36:56.709Z,88.56
2023-05-19T21:39:24.218Z,88.52
2023-05-19T21:41:51.792Z,88.59
2023-05-19T21:44:19.444Z,88.59
2023-05-19T21:46:47.503Z,88.71
2023-05-19T21:49:15.118Z,88.80
2023-05-19T21:51:42.606Z,88.92
2023-05-19T21:54:10.182Z,89.20
2023-05-19T21:56:38.085Z,89.21
2023-05-19T21:59:05.618Z,89.29
2023-05-19T22:01:44.855Z,89.30
2023-05-19T22:04:13.627Z,89.57
2023-05-19T22:06:41.324Z,89.81
2023-05-19T22:09:09.165Z,89.84
2023-05-19T22:11:36.970Z,89.76
2023-05-19T22:14:04.538Z,89.60
2023-05-19T22:16:32.151Z,89.57
2023-05-19T22:19:00.181Z,89.70
2023-05-19T22:21:28.042Z,89.80
2023-05-19T22:23:55.758Z,89.92
2023-05-19T22:26:23.295Z,89.95
2023-05-19T22:28:50.780Z,90.02
2023-05-19T22:31:18.486Z,90.21
2023-05-19T22:33:46.220Z,90.20
2023-05-19T22:36:16.025Z,90.30
2023-05-19T22:38:43.574Z,90.36
2023-05-19T22:41:11.157Z,90.26
2023-05-19T22:43:57.368Z,90.09
2023-05-19T22:46:24.950Z,90.04
2023-05-19T22:48:52.455Z,90.02
2023-05-19T22:51:19.963Z,90.08
2023-05-19T22:53:48.749Z,90.13
2023-05-19T22:56:16.361Z,90.20
2023-05-19T22:58:44.184Z,90.22
2023-05-19T23:01:11.764Z,90.20
2023-05-19T23:03:39.318Z,90.27
2023-05-19T23:06:06.862Z,90.30
2023-05-19T23:08:34.454Z,90.35
2023-05-19T23:11:02.513Z,90.43
2023-05-19T23:13:30.024Z,90.51
2023-05-19T23:15:57.600Z,90.48
2023-05-19T23:18:25.147Z,90.41
2023-05-19T23:20:52.914Z,90.45
2023-05-19T23:23:20.544Z,90.55
2023-05-19T23:25:48.075Z,90.65
2023-05-19T23:28:15.639Z,90.70
2023-05-19T23:30:43.174Z,90.70
2023-05-19T23:33:10.697Z,90.70
2023-05-19T23:35:39.613Z,90.68
2023-05-19T23:38:07.128Z,90.73
2023-05-19T23:40:34.677Z,90.68
2023-05-19T23:43:02.231Z,90.53
2023-05-19T23:45:29.849Z,90.59
2023-05-19T23:47:57.388Z,90.51
2023-05-19T23:50:24.992Z,90.48
2023-05-19T23:52:52.550Z,90.42
2023-05-19T23:55:20.242Z,90.39
2023-05-19T23:57:47.784Z,90.30
